sensor_id;sensor_type;location;lat;lon;timestamp;temperature;humidity
216;HTU21D;45701;48.81287245;9.14186865;2022-08-21T00:00:47;18.10;55.90
216;HTU21D;45701;48.81287245;9.14186865;2022-08-21T00:03:14;18.11;56.20
216;HTU21D;45701;48.81287245;9.14186865;2022-08-21T00:05:44;18.18;57.18
216;HTU21D;45701;48.81287245;9.14186865;2022-08-21T00:08:10;18.03;57.70
216;HTU21D;45701;48.81287245;9.14186865;2022-08-21T00:10:38;18.13;57.45
216;HTU21D;45701;48.81287245;9.14186865;2022-08-21T00:13:06;18.03;57.90
216;HTU21D;45701;48.81287245;9.14186865;2022-08-21T00:15:35;18.20;57.58
216;HTU21D;45701;48.81287245;9.14186865;2022-08-21T00:18:03;18.27;57.45
216;HTU21D;45701;48.81287245;9.14186865;2022-08-21T00:20:38;18.44;56.07
216;HTU21D;45701;48.81287245;9.14186865;2022-08-21T00:23:05;18.37;57.22
216;HTU21D;45701;48.81287245;9.14186865;2022-08-21T00:25:32;18.08;58.05
216;HTU21D;45701;48.81287245;9.14186865;2022-08-21T00:27:59;17.81;58.63
216;HTU21D;45701;48.81287245;9.14186865;2022-08-21T00:30:29;17.79;59.15
216;HTU21D;45701;48.81287245;9.14186865;2022-08-21T00:32:56;17.83;59.08
216;HTU21D;45701;48.81287245;9.14186865;2022-08-21T00:35:25;17.91;58.85
216;HTU21D;45701;48.81287245;9.14186865;2022-08-21T00:37:52;17.92;58.83
216;HTU21D;45701;48.81287245;9.14186865;2022-08-21T00:40:22;17.83;59.00
216;HTU21D;45701;48.81287245;9.14186865;2022-08-21T00:42:49;17.75;59.48
216;HTU21D;45701;48.81287245;9.14186865;2022-08-21T00:45:16;17.83;59.20
216;HTU21D;45701;48.81287245;9.14186865;2022-08-21T00:47:44;17.76;59.20
216;HTU21D;45701;48.81287245;9.14186865;2022-08-21T00:50:12;17.55;59.88
216;HTU21D;45701;48.81287245;9.14186865;2022-08-21T00:52:39;17.36;61.24
216;HTU21D;45701;48.81287245;9.14186865;2022-08-21T00:55:09;17.23;62.07
216;HTU21D;45701;48.81287245;9.14186865;2022-08-21T00:57:39;17.36;61.82
216;HTU21D;45701;48.81287245;9.14186865;2022-08-21T01:00:10;17.28;62.12
216;HTU21D;45701;48.81287245;9.14186865;2022-08-21T01:02:37;17.31;62.04
216;HTU21D;45701;48.81287245;9.14186865;2022-08-21T01:05:07;17.56;61.02
216;HTU21D;45701;48.81287245;9.14186865;2022-08-21T01:07:34;17.68;60.72
216;HTU21D;45701;48.81287245;9.14186865;2022-08-21T01:10:01;17.76;60.28
216;HTU21D;45701;48.81287245;9.14186865;2022-08-21T01:12:28;17.63;60.44
216;HTU21D;45701;48.81287245;9.14186865;2022-08-21T01:14:55;17.48;61.38
216;HTU21D;45701;48.81287245;9.14186865;2022-08-21T01:17:24;17.29;61.70
216;HTU21D;45701;48.81287245;9.14186865;2022-08-21T01:19:51;17.22;61.96
216;HTU21D;45701;48.81287245;9.14186865;2022-08-21T01:22:19;17.50;61.02
216;HTU21D;45701;48.81287245;9.14186865;2022-08-21T01:24:45;17.29;61.37
216;HTU21D;45701;48.81287245;9.14186865;2022-08-21T01:27:12;17.05;62.25
216;HTU21D;45701;48.81287245;9.14186865;2022-08-21T01:29:43;17.47;60.90
216;HTU21D;45701;48.81287245;9.14186865;2022-08-21T01:32:13;17.55;60.24
216;HTU21D;45701;48.81287245;9.14186865;2022-08-21T01:34:42;17.78;59.32
216;HTU21D;45701;48.81287245;9.14186865;2022-08-21T01:37:09;17.43;60.49
216;HTU21D;45701;48.81287245;9.14186865;2022-08-21T01:39:37;17.51;60.39
216;HTU21D;45701;48.81287245;9.14186865;2022-08-21T01:42:05;17.30;61.33
216;HTU21D;45701;48.81287245;9.14186865;2022-08-21T01:44:33;17.44;60.84
216;HTU21D;45701;48.81287245;9.14186865;2022-08-21T01:47:04;17.45;60.51
216;HTU21D;45701;48.81287245;9.14186865;2022-08-21T01:49:31;17.43;60.80
216;HTU21D;45701;48.81287245;9.14186865;2022-08-21T01:51:58;17.19;61.67
216;HTU21D;45701;48.81287245;9.14186865;2022-08-21T01:54:25;16.95;62.59
216;HTU21D;45701;48.81287245;9.14186865;2022-08-21T01:56:53;16.96;62.46
216;HTU21D;45701;48.81287245;9.14186865;2022-08-21T01:59:21;17.45;60.62
216;HTU21D;45701;48.81287245;9.14186865;2022-08-21T02:01:48;17.39;60.77
216;HTU21D;45701;48.81287245;9.14186865;2022-08-21T02:04:15;17.54;60.64
216;HTU21D;45701;48.81287245;9.14186865;2022-08-21T02:06:42;17.55;60.31
216;HTU21D;45701;48.81287245;9.14186865;2022-08-21T02:09:10;17.07;61.97
216;HTU21D;45701;48.81287245;9.14186865;2022-08-21T02:11:37;17.13;61.88
216;HTU21D;45701;48.81287245;9.14186865;2022-08-21T02:14:07;17.13;61.76
216;HTU21D;45701;48.81287245;9.14186865;2022-08-21T02:16:33;16.75;63.24
216;HTU21D;45701;48.81287245;9.14186865;2022-08-21T02:19:00;16.72;63.31
216;HTU21D;45701;48.81287245;9.14186865;2022-08-21T02:21:27;16.60;63.83
216;HTU21D;45701;48.81287245;9.14186865;2022-08-21T02:23:53;16.91;62.51
216;HTU21D;45701;48.81287245;9.14186865;2022-08-21T02:26:20;17.04;62.02
216;HTU21D;45701;48.81287245;9.14186865;2022-08-21T02:28:47;16.95;62.11
216;HTU21D;45701;48.81287245;9.14186865;2022-08-21T02:31:15;17.15;61.50
216;HTU21D;45701;48.81287245;9.14186865;2022-08-21T02:33:42;16.99;62.03
216;HTU21D;45701;48.81287245;9.14186865;2022-08-21T02:36:10;16.72;63.11
216;HTU21D;45701;48.81287245;9.14186865;2022-08-21T02:38:39;16.92;62.15
216;HTU21D;45701;48.81287245;9.14186865;2022-08-21T02:41:10;17.00;61.99
216;HTU21D;45701;48.81287245;9.14186865;2022-08-21T02:43:37;16.41;58.61
216;HTU21D;45701;48.81287245;9.14186865;2022-08-21T02:46:05;16.51;64.06
216;HTU21D;45701;48.81287245;9.14186865;2022-08-21T02:48:34;16.47;63.92
216;HTU21D;45701;48.81287245;9.14186865;2022-08-21T02:51:04;16.57;63.82
216;HTU21D;45701;48.81287245;9.14186865;2022-08-21T02:53:32;16.78;62.94
216;HTU21D;45701;48.81287245;9.14186865;2022-08-21T02:56:01;16.82;62.74
216;HTU21D;45701;48.81287245;9.14186865;2022-08-21T02:58:31;17.04;62.09
216;HTU21D;45701;48.81287245;9.14186865;2022-08-21T03:00:58;17.08;62.14
216;HTU21D;45701;48.81287245;9.14186865;2022-08-21T03:03:26;16.62;63.60
216;HTU21D;45701;48.81287245;9.14186865;2022-08-21T03:05:54;16.81;62.70
216;HTU21D;45701;48.81287245;9.14186865;2022-08-21T03:08:22;16.95;62.29
216;HTU21D;45701;48.81287245;9.14186865;2022-08-21T03:10:50;16.66;63.24
216;HTU21D;45701;48.81287245;9.14186865;2022-08-21T03:13:19;16.25;65.17
216;HTU21D;45701;48.81287245;9.14186865;2022-08-21T03:15:46;16.49;64.22
216;HTU21D;45701;48.81287245;9.14186865;2022-08-21T03:18:14;16.52;63.73
216;HTU21D;45701;48.81287245;9.14186865;2022-08-21T03:20:41;16.32;64.59
216;HTU21D;45701;48.81287245;9.14186865;2022-08-21T03:23:12;16.20;64.76
216;HTU21D;45701;48.81287245;9.14186865;2022-08-21T03:25:39;16.21;64.91
216;HTU21D;45701;48.81287245;9.14186865;2022-08-21T03:28:07;16.28;64.57
216;HTU21D;45701;48.81287245;9.14186865;2022-08-21T03:30:35;16.31;64.50
216;HTU21D;45701;48.81287245;9.14186865;2022-08-21T03:33:02;16.57;63.69
216;HTU21D;45701;48.81287245;9.14186865;2022-08-21T03:35:29;16.42;63.91
216;HTU21D;45701;48.81287245;9.14186865;2022-08-21T03:37:55;16.13;65.21
216;HTU21D;45701;48.81287245;9.14186865;2022-08-21T03:40:23;16.24;64.94
216;HTU21D;45701;48.81287245;9.14186865;2022-08-21T03:42:50;16.00;65.85
216;HTU21D;45701;48.81287245;9.14186865;2022-08-21T03:45:20;16.03;65.50
216;HTU21D;45701;48.81287245;9.14186865;2022-08-21T03:48:09;16.25;64.62
216;HTU21D;45701;48.81287245;9.14186865;2022-08-21T03:50:39;16.37;64.39
216;HTU21D;45701;48.81287245;9.14186865;2022-08-21T03:53:05;16.07;65.41
216;HTU21D;45701;48.81287245;9.14186865;2022-08-21T03:55:33;16.17;64.66
216;HTU21D;45701;48.81287245;9.14186865;2022-08-21T03:58:00;15.84;66.11
216;HTU21D;45701;48.81287245;9.14186865;2022-08-21T04:00:27;16.27;64.61
216;HTU21D;45701;48.81287245;9.14186865;2022-08-21T04:02:54;16.08;65.28
216;HTU21D;45701;48.81287245;9.14186865;2022-08-21T04:05:21;16.12;65.21
216;HTU21D;45701;48.81287245;9.14186865;2022-08-21T04:07:55;16.28;64.48
216;HTU21D;45701;48.81287245;9.14186865;2022-08-21T04:10:22;16.01;65.72
216;HTU21D;45701;48.81287245;9.14186865;2022-08-21T04:12:52;16.12;65.30
216;HTU21D;45701;48.81287245;9.14186865;2022-08-21T04:15:19;16.11;64.97
216;HTU21D;45701;48.81287245;9.14186865;2022-08-21T04:17:46;16.24;64.72
216;HTU21D;45701;48.81287245;9.14186865;2022-08-21T04:20:13;15.59;67.20
216;HTU21D;45701;48.81287245;9.14186865;2022-08-21T04:22:40;15.89;66.39
216;HTU21D;45701;48.81287245;9.14186865;2022-08-21T04:25:08;15.68;67.17
216;HTU21D;45701;48.81287245;9.14186865;2022-08-21T04:27:34;15.69;67.51
216;HTU21D;45701;48.81287245;9.14186865;2022-08-21T04:30:03;15.95;66.30
216;HTU21D;45701;48.81287245;9.14186865;2022-08-21T04:32:30;15.65;67.90
216;HTU21D;45701;48.81287245;9.14186865;2022-08-21T04:35:00;15.48;68.88
216;HTU21D;45701;48.81287245;9.14186865;2022-08-21T04:37:29;15.36;69.63
216;HTU21D;45701;48.81287245;9.14186865;2022-08-21T04:39:56;15.36;69.71
216;HTU21D;45701;48.81287245;9.14186865;2022-08-21T04:42:23;15.27;69.99
216;HTU21D;45701;48.81287245;9.14186865;2022-08-21T04:44:50;15.13;70.69
216;HTU21D;45701;48.81287245;9.14186865;2022-08-21T04:47:18;15.33;70.22
216;HTU21D;45701;48.81287245;9.14186865;2022-08-21T04:49:45;15.58;68.82
216;HTU21D;45701;48.81287245;9.14186865;2022-08-21T04:52:13;15.62;68.75
216;HTU21D;45701;48.81287245;9.14186865;2022-08-21T04:54:42;15.57;69.02
216;HTU21D;45701;48.81287245;9.14186865;2022-08-21T04:57:09;15.40;69.76
216;HTU21D;45701;48.81287245;9.14186865;2022-08-21T04:59:39;15.34;70.20
216;HTU21D;45701;48.81287245;9.14186865;2022-08-21T05:02:08;15.60;69.08
216;HTU21D;45701;48.81287245;9.14186865;2022-08-21T05:04:41;15.99;67.43
216;HTU21D;45701;48.81287245;9.14186865;2022-08-21T05:07:12;16.06;67.16
216;HTU21D;45701;48.81287245;9.14186865;2022-08-21T05:09:40;15.76;68.28
216;HTU21D;45701;48.81287245;9.14186865;2022-08-21T05:12:07;15.92;67.85
216;HTU21D;45701;48.81287245;9.14186865;2022-08-21T05:14:34;15.90;67.81
216;HTU21D;45701;48.81287245;9.14186865;2022-08-21T05:17:00;16.01;67.52
216;HTU21D;45701;48.81287245;9.14186865;2022-08-21T05:19:27;16.25;66.82
216;HTU21D;45701;48.81287245;9.14186865;2022-08-21T05:21:56;16.43;65.91
216;HTU21D;45701;48.81287245;9.14186865;2022-08-21T05:24:23;16.55;65.72
216;HTU21D;45701;48.81287245;9.14186865;2022-08-21T05:26:49;16.73;65.21
216;HTU21D;45701;48.81287245;9.14186865;2022-08-21T05:29:17;16.32;66.57
216;HTU21D;45701;48.81287245;9.14186865;2022-08-21T05:31:45;16.15;67.63
216;HTU21D;45701;48.81287245;9.14186865;2022-08-21T05:34:12;16.03;68.75
216;HTU21D;45701;48.81287245;9.14186865;2022-08-21T05:36:39;16.02;69.03
216;HTU21D;45701;48.81287245;9.14186865;2022-08-21T05:39:07;16.02;69.04
216;HTU21D;45701;48.81287245;9.14186865;2022-08-21T05:41:33;16.11;68.65
216;HTU21D;45701;48.81287245;9.14186865;2022-08-21T05:44:00;16.16;68.62
216;HTU21D;45701;48.81287245;9.14186865;2022-08-21T05:46:27;16.27;67.61
216;HTU21D;45701;48.81287245;9.14186865;2022-08-21T05:48:54;16.46;66.88
216;HTU21D;45701;48.81287245;9.14186865;2022-08-21T05:51:20;16.64;66.14
216;HTU21D;45701;48.81287245;9.14186865;2022-08-21T05:53:47;16.78;65.79
216;HTU21D;45701;48.81287245;9.14186865;2022-08-21T05:56:15;16.96;65.11
216;HTU21D;45701;48.81287245;9.14186865;2022-08-21T05:58:42;16.96;65.02
216;HTU21D;45701;48.81287245;9.14186865;2022-08-21T06:01:09;17.03;64.91
216;HTU21D;45701;48.81287245;9.14186865;2022-08-21T06:03:39;17.07;64.96
216;HTU21D;45701;48.81287245;9.14186865;2022-08-21T06:06:06;17.30;64.15
216;HTU21D;45701;48.81287245;9.14186865;2022-08-21T06:08:33;17.54;62.92
216;HTU21D;45701;48.81287245;9.14186865;2022-08-21T06:11:01;17.67;62.03
216;HTU21D;45701;48.81287245;9.14186865;2022-08-21T06:13:29;17.59;62.15
216;HTU21D;45701;48.81287245;9.14186865;2022-08-21T06:16:05;17.64;62.65
216;HTU21D;45701;48.81287245;9.14186865;2022-08-21T06:18:33;17.92;61.78
216;HTU21D;45701;48.81287245;9.14186865;2022-08-21T06:21:00;18.04;60.31
216;HTU21D;45701;48.81287245;9.14186865;2022-08-21T06:23:26;17.89;61.12
216;HTU21D;45701;48.81287245;9.14186865;2022-08-21T06:25:53;17.99;61.35
216;HTU21D;45701;48.81287245;9.14186865;2022-08-21T06:28:20;18.10;60.57
216;HTU21D;45701;48.81287245;9.14186865;2022-08-21T06:30:48;18.08;60.41
216;HTU21D;45701;48.81287245;9.14186865;2022-08-21T06:33:15;18.28;59.75
216;HTU21D;45701;48.81287245;9.14186865;2022-08-21T06:35:41;18.44;59.20
216;HTU21D;45701;48.81287245;9.14186865;2022-08-21T06:38:08;18.65;58.64
216;HTU21D;45701;48.81287245;9.14186865;2022-08-21T06:40:36;18.68;58.77
216;HTU21D;45701;48.81287245;9.14186865;2022-08-21T06:43:07;19.01;57.74
216;HTU21D;45701;48.81287245;9.14186865;2022-08-21T06:45:35;19.05;58.11
216;HTU21D;45701;48.81287245;9.14186865;2022-08-21T06:48:03;19.13;57.26
216;HTU21D;45701;48.81287245;9.14186865;2022-08-21T06:50:30;19.23;55.83
216;HTU21D;45701;48.81287245;9.14186865;2022-08-21T06:53:03;19.32;55.20
216;HTU21D;45701;48.81287245;9.14186865;2022-08-21T06:55:30;19.22;54.66
216;HTU21D;45701;48.81287245;9.14186865;2022-08-21T06:57:57;19.32;54.84
216;HTU21D;45701;48.81287245;9.14186865;2022-08-21T07:00:24;19.39;54.25
216;HTU21D;45701;48.81287245;9.14186865;2022-08-21T07:02:50;19.53;53.78
216;HTU21D;45701;48.81287245;9.14186865;2022-08-21T07:05:18;19.62;53.34
216;HTU21D;45701;48.81287245;9.14186865;2022-08-21T07:07:46;19.68;52.91
216;HTU21D;45701;48.81287245;9.14186865;2022-08-21T07:10:13;19.66;53.02
216;HTU21D;45701;48.81287245;9.14186865;2022-08-21T07:12:40;19.65;53.20
216;HTU21D;45701;48.81287245;9.14186865;2022-08-21T07:15:08;19.76;53.02
216;HTU21D;45701;48.81287245;9.14186865;2022-08-21T07:17:34;19.69;53.46
216;HTU21D;45701;48.81287245;9.14186865;2022-08-21T07:20:02;19.86;53.07
216;HTU21D;45701;48.81287245;9.14186865;2022-08-21T07:22:30;19.90;52.80
216;HTU21D;45701;48.81287245;9.14186865;2022-08-21T07:24:57;19.92;52.40
216;HTU21D;45701;48.81287245;9.14186865;2022-08-21T07:27:24;19.99;52.88
216;HTU21D;45701;48.81287245;9.14186865;2022-08-21T07:29:50;20.06;53.10
216;HTU21D;45701;48.81287245;9.14186865;2022-08-21T07:32:17;20.25;51.53
216;HTU21D;45701;48.81287245;9.14186865;2022-08-21T07:34:44;20.21;51.61
216;HTU21D;45701;48.81287245;9.14186865;2022-08-21T07:37:10;20.29;53.05
216;HTU21D;45701;48.81287245;9.14186865;2022-08-21T07:39:38;20.45;51.92
216;HTU21D;45701;48.81287245;9.14186865;2022-08-21T07:42:05;20.55;50.88
216;HTU21D;45701;48.81287245;9.14186865;2022-08-21T07:44:32;20.49;51.72
216;HTU21D;45701;48.81287245;9.14186865;2022-08-21T07:46:59;20.48;51.36
216;HTU21D;45701;48.81287245;9.14186865;2022-08-21T07:49:26;20.68;50.18
216;HTU21D;45701;48.81287245;9.14186865;2022-08-21T07:51:53;20.61;50.27
216;HTU21D;45701;48.81287245;9.14186865;2022-08-21T07:54:20;20.72;50.50
216;HTU21D;45701;48.81287245;9.14186865;2022-08-21T07:56:48;20.81;50.88
216;HTU21D;45701;48.81287245;9.14186865;2022-08-21T07:59:15;20.77;50.18
216;HTU21D;45701;48.81287245;9.14186865;2022-08-21T08:01:41;20.89;49.97
216;HTU21D;45701;48.81287245;9.14186865;2022-08-21T08:04:08;20.90;49.69
216;HTU21D;45701;48.81287245;9.14186865;2022-08-21T08:06:35;20.90;49.95
216;HTU21D;45701;48.81287245;9.14186865;2022-08-21T08:09:02;21.04;49.97
216;HTU21D;45701;48.81287245;9.14186865;2022-08-21T08:11:29;21.14;49.71
216;HTU21D;45701;48.81287245;9.14186865;2022-08-21T08:13:57;21.24;49.53
216;HTU21D;45701;48.81287245;9.14186865;2022-08-21T08:16:25;21.24;49.75
216;HTU21D;45701;48.81287245;9.14186865;2022-08-21T08:18:51;21.44;48.57
216;HTU21D;45701;48.81287245;9.14186865;2022-08-21T08:21:20;21.32;48.59
216;HTU21D;45701;48.81287245;9.14186865;2022-08-21T08:23:46;21.43;48.85
216;HTU21D;45701;48.81287245;9.14186865;2022-08-21T08:26:13;21.69;49.54
216;HTU21D;45701;48.81287245;9.14186865;2022-08-21T08:28:41;21.87;48.31
216;HTU21D;45701;48.81287245;9.14186865;2022-08-21T08:31:09;21.89;48.99
216;HTU21D;45701;48.81287245;9.14186865;2022-08-21T08:33:36;22.05;47.74
216;HTU21D;45701;48.81287245;9.14186865;2022-08-21T08:36:03;22.18;47.18
216;HTU21D;45701;48.81287245;9.14186865;2022-08-21T08:38:30;22.10;47.56
216;HTU21D;45701;48.81287245;9.14186865;2022-08-21T08:41:10;22.14;47.02
216;HTU21D;45701;48.81287245;9.14186865;2022-08-21T08:43:38;22.14;46.35
216;HTU21D;45701;48.81287245;9.14186865;2022-08-21T08:46:12;22.29;47.29
216;HTU21D;45701;48.81287245;9.14186865;2022-08-21T08:48:46;22.25;46.55
216;HTU21D;45701;48.81287245;9.14186865;2022-08-21T08:51:18;22.03;47.27
216;HTU21D;45701;48.81287245;9.14186865;2022-08-21T08:53:50;22.13;46.83
216;HTU21D;45701;48.81287245;9.14186865;2022-08-21T08:56:26;22.11;47.10
216;HTU21D;45701;48.81287245;9.14186865;2022-08-21T08:58:57;22.27;46.77
216;HTU21D;45701;48.81287245;9.14186865;2022-08-21T09:01:26;22.57;46.97
216;HTU21D;45701;48.81287245;9.14186865;2022-08-21T09:03:53;22.78;44.07
216;HTU21D;45701;48.81287245;9.14186865;2022-08-21T09:06:31;22.57;44.17
216;HTU21D;45701;48.81287245;9.14186865;2022-08-21T09:09:09;22.56;45.12
216;HTU21D;45701;48.81287245;9.14186865;2022-08-21T09:11:48;22.69;43.96
216;HTU21D;45701;48.81287245;9.14186865;2022-08-21T09:14:26;22.93;43.99
216;HTU21D;45701;48.81287245;9.14186865;2022-08-21T09:17:01;23.03;43.51
216;HTU21D;45701;48.81287245;9.14186865;2022-08-21T09:19:39;23.20;43.10
216;HTU21D;45701;48.81287245;9.14186865;2022-08-21T09:22:17;22.96;43.19
216;HTU21D;45701;48.81287245;9.14186865;2022-08-21T09:24:53;23.01;43.81
216;HTU21D;45701;48.81287245;9.14186865;2022-08-21T09:27:23;23.12;42.82
216;HTU21D;45701;48.81287245;9.14186865;2022-08-21T09:29:52;23.15;42.61
216;HTU21D;45701;48.81287245;9.14186865;2022-08-21T09:32:22;23.28;42.21
216;HTU21D;45701;48.81287245;9.14186865;2022-08-21T09:34:59;23.26;41.58
216;HTU21D;45701;48.81287245;9.14186865;2022-08-21T09:37:26;23.35;40.91
216;HTU21D;45701;48.81287245;9.14186865;2022-08-21T09:39:55;23.24;40.89
216;HTU21D;45701;48.81287245;9.14186865;2022-08-21T09:42:25;23.34;41.67
216;HTU21D;45701;48.81287245;9.14186865;2022-08-21T09:45:10;23.68;40.30
216;HTU21D;45701;48.81287245;9.14186865;2022-08-21T09:47:38;23.81;40.84
216;HTU21D;45701;48.81287245;9.14186865;2022-08-21T09:50:11;24.05;40.19
216;HTU21D;45701;48.81287245;9.14186865;2022-08-21T09:52:47;23.91;40.07
216;HTU21D;45701;48.81287245;9.14186865;2022-08-21T09:55:18;23.57;40.77
216;HTU21D;45701;48.81287245;9.14186865;2022-08-21T09:57:59;23.37;41.55
216;HTU21D;45701;48.81287245;9.14186865;2022-08-21T10:00:29;23.79;40.50
216;HTU21D;45701;48.81287245;9.14186865;2022-08-21T10:03:13;23.87;38.98
216;HTU21D;45701;48.81287245;9.14186865;2022-08-21T10:05:51;23.66;40.05
216;HTU21D;45701;48.81287245;9.14186865;2022-08-21T10:08:19;23.99;39.49
216;HTU21D;45701;48.81287245;9.14186865;2022-08-21T10:10:50;23.81;39.99
216;HTU21D;45701;48.81287245;9.14186865;2022-08-21T10:13:29;23.96;39.56
216;HTU21D;45701;48.81287245;9.14186865;2022-08-21T10:16:07;23.86;40.00
216;HTU21D;45701;48.81287245;9.14186865;2022-08-21T10:18:40;23.76;40.05
216;HTU21D;45701;48.81287245;9.14186865;2022-08-21T10:21:16;23.83;39.85
216;HTU21D;45701;48.81287245;9.14186865;2022-08-21T10:23:57;23.77;39.94
216;HTU21D;45701;48.81287245;9.14186865;2022-08-21T10:26:33;23.76;40.84
216;HTU21D;45701;48.81287245;9.14186865;2022-08-21T10:29:09;24.23;38.38
216;HTU21D;45701;48.81287245;9.14186865;2022-08-21T10:31:44;24.06;39.69
216;HTU21D;45701;48.81287245;9.14186865;2022-08-21T10:34:33;23.99;39.35
216;HTU21D;45701;48.81287245;9.14186865;2022-08-21T10:37:18;24.08;39.54
216;HTU21D;45701;48.81287245;9.14186865;2022-08-21T10:39:58;24.35;38.46
216;HTU21D;45701;48.81287245;9.14186865;2022-08-21T10:42:36;24.26;38.21
216;HTU21D;45701;48.81287245;9.14186865;2022-08-21T10:45:11;24.35;38.17
216;HTU21D;45701;48.81287245;9.14186865;2022-08-21T10:47:44;24.48;37.96
216;HTU21D;45701;48.81287245;9.14186865;2022-08-21T10:50:19;24.43;38.30
216;HTU21D;45701;48.81287245;9.14186865;2022-08-21T10:53:19;24.48;37.26
216;HTU21D;45701;48.81287245;9.14186865;2022-08-21T10:55:54;24.38;37.45
216;HTU21D;45701;48.81287245;9.14186865;2022-08-21T10:58:26;24.62;36.56
216;HTU21D;45701;48.81287245;9.14186865;2022-08-21T11:00:57;24.57;37.65
216;HTU21D;45701;48.81287245;9.14186865;2022-08-21T11:03:32;24.83;35.72
216;HTU21D;45701;48.81287245;9.14186865;2022-08-21T11:06:06;24.82;36.59
216;HTU21D;45701;48.81287245;9.14186865;2022-08-21T11:08:38;24.74;36.27
216;HTU21D;45701;48.81287245;9.14186865;2022-08-21T11:11:10;24.71;36.72
216;HTU21D;45701;48.81287245;9.14186865;2022-08-21T11:13:42;24.88;37.08
216;HTU21D;45701;48.81287245;9.14186865;2022-08-21T11:16:17;25.15;36.54
216;HTU21D;45701;48.81287245;9.14186865;2022-08-21T11:18:49;24.91;36.88
216;HTU21D;45701;48.81287245;9.14186865;2022-08-21T11:21:32;25.43;36.38
216;HTU21D;45701;48.81287245;9.14186865;2022-08-21T11:24:03;24.65;36.79
216;HTU21D;45701;48.81287245;9.14186865;2022-08-21T11:26:41;24.55;37.48
216;HTU21D;45701;48.81287245;9.14186865;2022-08-21T11:29:13;24.62;37.26
216;HTU21D;45701;48.81287245;9.14186865;2022-08-21T11:31:55;24.82;36.73
216;HTU21D;45701;48.81287245;9.14186865;2022-08-21T11:34:33;24.98;36.19
216;HTU21D;45701;48.81287245;9.14186865;2022-08-21T11:37:12;25.15;36.45
216;HTU21D;45701;48.81287245;9.14186865;2022-08-21T11:39:49;25.08;35.90
216;HTU21D;45701;48.81287245;9.14186865;2022-08-21T11:42:27;25.21;35.73
216;HTU21D;45701;48.81287245;9.14186865;2022-08-21T11:45:05;25.37;35.07
216;HTU21D;45701;48.81287245;9.14186865;2022-08-21T11:47:51;25.27;34.85
216;HTU21D;45701;48.81287245;9.14186865;2022-08-21T11:50:24;25.69;34.09
216;HTU21D;45701;48.81287245;9.14186865;2022-08-21T11:52:59;26.21;32.93
216;HTU21D;45701;48.81287245;9.14186865;2022-08-21T11:55:31;26.25;32.57
216;HTU21D;45701;48.81287245;9.14186865;2022-08-21T11:58:02;26.56;31.99
216;HTU21D;45701;48.81287245;9.14186865;2022-08-21T12:00:34;27.46;30.89
216;HTU21D;45701;48.81287245;9.14186865;2022-08-21T12:03:08;27.82;30.19
216;HTU21D;45701;48.81287245;9.14186865;2022-08-21T12:05:39;28.11;29.41
216;HTU21D;45701;48.81287245;9.14186865;2022-08-21T12:08:11;28.01;29.48
216;HTU21D;45701;48.81287245;9.14186865;2022-08-21T12:10:41;28.45;28.43
216;HTU21D;45701;48.81287245;9.14186865;2022-08-21T12:13:23;28.63;29.02
216;HTU21D;45701;48.81287245;9.14186865;2022-08-21T12:15:50;28.79;29.43
216;HTU21D;45701;48.81287245;9.14186865;2022-08-21T12:18:23;28.78;28.01
216;HTU21D;45701;48.81287245;9.14186865;2022-08-21T12:21:04;28.06;28.84
216;HTU21D;45701;48.81287245;9.14186865;2022-08-21T12:23:42;28.02;29.03
216;HTU21D;45701;48.81287245;9.14186865;2022-08-21T12:26:27;28.90;27.91
216;HTU21D;45701;48.81287245;9.14186865;2022-08-21T12:29:15;28.93;27.36
216;HTU21D;45701;48.81287245;9.14186865;2022-08-21T12:31:58;28.39;28.28
216;HTU21D;45701;48.81287245;9.14186865;2022-08-21T12:34:32;27.74;28.93
216;HTU21D;45701;48.81287245;9.14186865;2022-08-21T12:37:03;27.94;28.46
216;HTU21D;45701;48.81287245;9.14186865;2022-08-21T12:39:34;28.29;27.74
216;HTU21D;45701;48.81287245;9.14186865;2022-08-21T12:42:06;27.57;28.96
216;HTU21D;45701;48.81287245;9.14186865;2022-08-21T12:44:42;26.97;30.52
216;HTU21D;45701;48.81287245;9.14186865;2022-08-21T12:47:15;27.31;29.64
216;HTU21D;45701;48.81287245;9.14186865;2022-08-21T12:49:52;28.16;28.50
216;HTU21D;45701;48.81287245;9.14186865;2022-08-21T12:52:22;28.44;27.06
216;HTU21D;45701;48.81287245;9.14186865;2022-08-21T12:54:50;27.79;27.65
216;HTU21D;45701;48.81287245;9.14186865;2022-08-21T12:57:20;27.52;28.76
216;HTU21D;45701;48.81287245;9.14186865;2022-08-21T12:59:52;27.13;28.77
216;HTU21D;45701;48.81287245;9.14186865;2022-08-21T13:02:21;27.10;28.97
216;HTU21D;45701;48.81287245;9.14186865;2022-08-21T13:04:50;26.69;29.30
216;HTU21D;45701;48.81287245;9.14186865;2022-08-21T13:07:24;26.90;29.42
216;HTU21D;45701;48.81287245;9.14186865;2022-08-21T13:09:55;27.82;27.57
216;HTU21D;45701;48.81287245;9.14186865;2022-08-21T13:12:23;29.35;25.21
216;HTU21D;45701;48.81287245;9.14186865;2022-08-21T13:14:52;30.10;23.40
216;HTU21D;45701;48.81287245;9.14186865;2022-08-21T13:17:24;30.92;22.66
216;HTU21D;45701;48.81287245;9.14186865;2022-08-21T13:19:56;31.52;21.66
216;HTU21D;45701;48.81287245;9.14186865;2022-08-21T13:22:24;31.85;20.63
216;HTU21D;45701;48.81287245;9.14186865;2022-08-21T13:24:52;29.82;24.06
216;HTU21D;45701;48.81287245;9.14186865;2022-08-21T13:27:23;29.15;25.41
216;HTU21D;45701;48.81287245;9.14186865;2022-08-21T13:30:05;28.41;26.63
216;HTU21D;45701;48.81287245;9.14186865;2022-08-21T13:32:34;27.64;27.96
216;HTU21D;45701;48.81287245;9.14186865;2022-08-21T13:35:11;27.41;28.64
216;HTU21D;45701;48.81287245;9.14186865;2022-08-21T13:37:40;27.26;28.57
216;HTU21D;45701;48.81287245;9.14186865;2022-08-21T13:40:11;26.80;29.87
216;HTU21D;45701;48.81287245;9.14186865;2022-08-21T13:42:41;26.67;29.09
216;HTU21D;45701;48.81287245;9.14186865;2022-08-21T13:45:13;26.77;29.42
216;HTU21D;45701;48.81287245;9.14186865;2022-08-21T13:47:41;27.01;28.98
216;HTU21D;45701;48.81287245;9.14186865;2022-08-21T13:50:12;26.84;29.35